Terminal Aerodrome Forecast
Issued by NWS Wilmington, OH

Current Version | Previous Version | Text Only | Print | Product List | Glossary Off
Versions: 1 2 3 4 5 6 7 8 9 10 11 12 13 14 15 16 17

000
FTUS41 KILN 011100
TAFDAY
TAF
KDAY 011137Z 0112/0212 33004KT P6SM SCT040 BKN250
     FM011500 32007KT P6SM SCT040 BKN250
     FM020000 02004KT P6SM SCT050 BKN250
     FM020600 07004KT P6SM SCT050 SCT120 BKN250=

USA.gov is the U.S. government's official web portal to all federal, state and local government web resources and services.